Time;durP1;ratioP1;P1;durP2;ratioP2;P2;SDS_P1;SDS_P2;PMS_P1;PMS_P2;Temp;Humidity;BMP_temperature;BMP_pressure;BME280_temperature;BME280_humidity;BME280_pressure;Samples;Min_cycle;Max_cycle;Signal;HPM_P1;HPM_P2
2022/06/14 00:00:54;;;;;;;5.65;3.85;;;27.10;47.10;;;;;;5035617;28;20025;-75
2022/06/14 00:03:31;;;;;;;5.05;3.58;;;27.10;47.20;;;;;;5037674;28;20100;-75
2022/06/14 00:06:00;;;;;;;4.38;3.97;;;27.00;47.20;;;;;;5037287;28;20076;-75
2022/06/14 00:08:26;;;;;;;4.97;3.67;;;27.00;47.40;;;;;;5036103;28;20392;-75
2022/06/14 00:10:54;;;;;;;4.22;3.60;;;27.00;47.50;;;;;;5037370;28;20036;-74
2022/06/14 00:13:20;;;;;;;5.57;3.70;;;27.00;47.70;;;;;;5037416;28;20075;-75
2022/06/14 00:15:47;;;;;;;4.85;4.05;;;27.00;48.00;;;;;;5037113;28;20029;-74
2022/06/14 00:18:14;;;;;;;6.00;4.03;;;26.90;48.10;;;;;;5036953;28;20030;-73
2022/06/14 00:20:40;;;;;;;6.20;4.00;;;26.90;48.20;;;;;;5037276;28;20030;-74
2022/06/14 00:23:06;;;;;;;5.25;4.18;;;26.80;48.20;;;;;;5035896;28;20116;-74
2022/06/14 00:25:39;;;;;;;4.30;3.90;;;26.90;48.30;;;;;;5037140;28;20067;-75
2022/06/14 00:28:08;;;;;;;4.57;3.58;;;26.80;48.50;;;;;;5035789;28;20088;-74
2022/06/14 00:30:34;;;;;;;4.30;3.65;;;26.80;48.50;;;;;;5036897;28;20454;-75
2022/06/14 00:33:00;;;;;;;4.30;3.90;;;26.70;48.60;;;;;;5036522;28;20036;-75
2022/06/14 00:35:27;;;;;;;6.68;3.90;;;26.70;48.70;;;;;;5036640;28;20022;-75
2022/06/14 00:37:54;;;;;;;4.47;3.88;;;26.70;48.80;;;;;;5037093;28;20108;-75
2022/06/14 00:40:23;;;;;;;4.75;4.15;;;26.60;48.70;;;;;;5036575;28;20029;-74
2022/06/14 00:42:49;;;;;;;5.32;4.22;;;26.60;48.70;;;;;;5036572;28;20026;-73
2022/06/14 00:45:18;;;;;;;6.30;3.85;;;26.60;48.80;;;;;;5036463;28;20033;-75
2022/06/14 00:47:51;;;;;;;4.28;3.88;;;26.60;48.90;;;;;;5036232;28;20380;-74
2022/06/14 00:50:31;;;;;;;4.97;3.60;;;26.60;48.90;;;;;;5036617;28;20053;-75
2022/06/14 00:53:09;;;;;;;4.22;3.83;;;26.50;49.10;;;;;;5035908;28;20029;-75
2022/06/14 00:56:05;;;;;;;4.55;3.85;;;26.50;49.00;;;;;;5035815;28;20030;-75
2022/06/14 00:58:50;;;;;;;4.47;3.70;;;26.50;49.50;;;;;;5035662;28;20095;-74
2022/06/14 01:01:24;;;;;;;;;;;26.50;49.30;;;;;;5036561;28;20388;-75
2022/06/14 01:04:06;;;;;;;4.28;3.42;;;26.50;49.90;;;;;;5036145;28;19905;-74
2022/06/14 01:06:59;;;;;;;3.83;3.05;;;26.50;49.20;;;;;;5035121;28;20030;-74
2022/06/14 01:09:37;;;;;;;4.40;3.33;;;26.50;49.60;;;;;;5035259;28;20484;-74
2022/06/14 01:12:14;;;;;;;3.60;3.30;;;26.40;49.40;;;;;;5035464;28;20543;-74
2022/06/14 01:15:01;;;;;;;4.10;3.50;;;26.50;49.30;;;;;;5036244;28;20024;-74
2022/06/14 01:17:28;;;;;;;6.68;4.28;;;26.50;49.60;;;;;;5035903;28;20040;-74
2022/06/14 01:19:54;;;;;;;5.25;4.13;;;26.40;49.00;;;;;;5036162;28;20052;-73
2022/06/14 01:22:21;;;;;;;4.40;4.00;;;26.30;49.00;;;;;;5034859;28;20353;-73
2022/06/14 01:24:47;;;;;;;5.90;4.22;;;26.30;49.20;;;;;;5034819;28;20036;-74
2022/06/14 01:27:16;;;;;;;6.20;4.13;;;26.30;49.30;;;;;;5034318;28;20054;-74
2022/06/14 01:29:46;;;;;;;5.65;4.55;;;26.30;49.40;;;;;;5035726;28;20030;-74
2022/06/14 01:32:14;;;;;;;6.93;4.50;;;26.20;49.40;;;;;;5035962;28;20025;-74
2022/06/14 01:34:46;;;;;;;4.78;4.20;;;26.20;49.50;;;;;;5035856;28;20515;-74
2022/06/14 01:37:13;;;;;;;5.68;4.60;;;26.20;49.60;;;;;;5035759;28;20029;-74
2022/06/14 01:39:39;;;;;;;4.45;4.05;;;26.10;49.50;;;;;;5035732;28;20459;-75
2022/06/14 01:42:40;;;;;;;5.18;4.20;;;26.10;49.60;;;;;;5035712;28;20080;-74
2022/06/14 01:45:10;;;;;;;5.35;4.10;;;26.10;49.90;;;;;;5035815;28;20084;-73
2022/06/14 01:47:53;;;;;;;4.15;3.75;;;26.10;49.80;;;;;;5035565;28;20048;-75
2022/06/14 01:53:56;;;;;;;5.03;3.70;;;26.00;50.00;;;;;;5035549;28;20522;-74
2022/06/14 01:56:37;;;;;;;4.20;3.80;;;26.00;50.20;;;;;;5034669;28;20127;-74
2022/06/14 01:59:29;;;;;;;7.28;4.10;;;26.00;50.10;;;;;;5035350;28;20029;-74
2022/06/14 02:02:20;;;;;;;4.20;3.60;;;25.90;49.90;;;;;;5035329;28;20034;-75
2022/06/14 02:05:11;;;;;;;4.80;3.80;;;25.90;50.30;;;;;;5035207;28;20022;-74
2022/06/14 02:08:00;;;;;;;4.82;3.90;;;25.90;50.40;;;;;;5034400;28;20098;-74
2022/06/14 02:10:37;;;;;;;4.20;3.80;;;25.80;50.40;;;;;;5033919;28;20087;-75
2022/06/14 02:13:46;;;;;;;4.50;4.03;;;25.80;50.10;;;;;;5034872;28;20072;-74
2022/06/14 02:16:19;;;;;;;5.97;4.03;;;25.80;50.60;;;;;;5035421;28;20504;-74
2022/06/14 02:18:56;;;;;;;4.68;4.00;;;25.80;50.20;;;;;;5035042;28;20043;-75
2022/06/14 02:21:41;;;;;;;4.47;3.80;;;25.80;50.20;;;;;;5033456;28;20057;-74
2022/06/14 02:24:18;;;;;;;4.72;3.92;;;25.80;50.50;;;;;;5033816;28;20037;-74
2022/06/14 02:26:53;;;;;;;3.95;3.38;;;25.80;50.40;;;;;;5033371;28;20129;-74
2022/06/14 02:29:26;;;;;;;4.70;3.53;;;25.80;50.20;;;;;;5034688;28;20049;-74
2022/06/14 02:32:00;;;;;;;3.92;3.53;;;25.70;50.10;;;;;;5035111;28;20049;-74
2022/06/14 02:34:37;;;;;;;5.32;3.50;;;25.70;50.10;;;;;;5034939;28;20056;-73
2022/06/14 02:37:10;;;;;;;4.43;3.80;;;25.80;50.30;;;;;;5034731;28;20053;-75
2022/06/14 02:39:47;;;;;;;5.13;3.60;;;25.70;50.20;;;;;;5034337;28;20087;-75
2022/06/14 02:42:21;;;;;;;3.95;3.40;;;25.70;50.20;;;;;;5033227;28;20036;-74
2022/06/14 02:44:56;;;;;;;4.45;3.30;;;25.70;50.20;;;;;;5033785;28;20025;-75
2022/06/14 02:47:37;;;;;;;5.28;3.08;;;25.70;50.20;;;;;;5034259;28;20045;-75
2022/06/14 02:50:25;;;;;;;4.68;3.00;;;25.70;50.20;;;;;;5016881;28;20542;-74
2022/06/14 02:52:57;;;;;;;3.88;3.08;;;25.80;50.10;;;;;;5034467;28;20076;-74
2022/06/14 02:55:32;;;;;;;4.93;3.13;;;25.80;50.00;;;;;;5034099;28;20021;-74
2022/06/14 02:58:05;;;;;;;3.80;3.10;;;25.80;50.00;;;;;;5034600;28;20033;-74
2022/06/14 03:00:39;;;;;;;3.30;3.00;;;25.80;49.90;;;;;;5034274;28;20112;-73
2022/06/14 03:03:11;;;;;;;3.00;2.67;;;25.80;49.90;;;;;;5033923;28;20476;-74
2022/06/14 03:05:46;;;;;;;3.88;2.90;;;25.80;49.90;;;;;;5034070;28;20030;-74
2022/06/14 03:08:21;;;;;;;4.60;2.75;;;25.90;50.00;;;;;;5034252;28;20116;-74
2022/06/14 03:10:55;;;;;;;3.53;3.00;;;25.90;50.00;;;;;;5033902;28;20464;-74
2022/06/14 03:13:35;;;;;;;3.55;2.83;;;25.90;49.80;;;;;;5032509;28;20423;-73
2022/06/14 03:16:12;;;;;;;3.75;2.75;;;26.00;49.90;;;;;;5033843;28;20112;-74
2022/06/14 03:18:40;;;;;;;3.45;2.70;;;26.00;49.80;;;;;;5034100;28;20033;-74
2022/06/14 03:21:34;;;;;;;3.10;2.80;;;26.00;49.70;;;;;;5034054;28;20418;-74
2022/06/14 03:24:04;;;;;;;2.80;2.58;;;26.10;50.00;;;;;;5033950;28;20139;-74
2022/06/14 03:26:49;;;;;;;3.53;2.65;;;26.10;49.70;;;;;;5033805;28;20060;-74
2022/06/14 03:29:23;;;;;;;3.92;2.83;;;26.10;49.80;;;;;;5033891;28;20049;-74
2022/06/14 03:32:30;;;;;;;3.15;2.67;;;26.20;49.70;;;;;;5032375;28;20029;-73
2022/06/14 03:35:05;;;;;;;3.25;2.70;;;26.20;49.80;;;;;;5032649;28;20108;-75
2022/06/14 03:37:31;;;;;;;3.42;2.50;;;26.20;49.50;;;;;;5033746;28;20029;-74
2022/06/14 03:40:04;;;;;;;2.72;2.42;;;26.30;49.60;;;;;;5033771;28;20038;-74
2022/06/14 03:42:30;;;;;;;2.50;2.30;;;26.30;49.50;;;;;;5033383;28;20025;-74
2022/06/14 03:44:57;;;;;;;2.67;2.47;;;26.30;49.40;;;;;;5033451;28;20485;-74
2022/06/14 03:47:26;;;;;;;5.45;2.90;;;26.40;49.40;;;;;;5032100;28;20037;-74
2022/06/14 03:49:59;;;;;;;4.53;2.80;;;26.40;49.40;;;;;;5016002;28;20083;-74
2022/06/14 03:52:49;;;;;;;4.85;2.60;;;26.40;49.40;;;;;;5032425;28;20498;-74
2022/06/14 03:55:51;;;;;;;4.22;2.90;;;26.40;49.30;;;;;;5034119;28;20053;-74
2022/06/14 03:58:34;;;;;;;3.15;2.65;;;26.40;49.40;;;;;;5033293;28;20033;-73
2022/06/14 04:01:23;;;;;;;2.88;2.67;;;26.40;49.20;;;;;;5033643;28;20074;-74
2022/06/14 04:04:17;;;;;;;5.65;2.60;;;26.50;49.40;;;;;;5033294;28;20030;-74
2022/06/14 04:07:01;;;;;;;5.33;2.53;;;26.50;49.30;;;;;;5033394;28;20105;-74
2022/06/14 04:09:36;;;;;;;;;;;26.50;49.50;;;;;;5033751;28;20030;-75
2022/06/14 04:12:17;;;;;;;3.20;2.50;;;26.50;49.70;;;;;;5033484;28;19905;-74
2022/06/14 04:15:08;;;;;;;2.72;2.30;;;26.50;49.30;;;;;;5031768;28;20021;-75
2022/06/14 04:17:57;;;;;;;3.70;2.75;;;26.50;49.50;;;;;;5032036;28;20029;-75
2022/06/14 04:20:31;;;;;;;3.85;2.58;;;26.50;49.60;;;;;;5033815;28;20357;-73
2022/06/14 04:23:21;;;;;;;3.33;2.65;;;26.50;49.20;;;;;;5032227;28;20028;-74
2022/06/14 04:26:14;;;;;;;5.18;2.50;;;26.50;49.30;;;;;;5032035;28;20479;-73
2022/06/14 04:29:15;;;;;;;2.75;2.55;;;26.60;49.50;;;;;;5033219;28;20029;-74
2022/06/14 04:32:01;;;;;;;2.53;2.33;;;26.60;50.00;;;;;;5033275;28;20052;-74
2022/06/14 04:34:40;;;;;;;2.97;2.30;;;26.60;49.30;;;;;;5033163;28;20475;-75
2022/06/14 04:37:18;;;;;;;2.42;2.22;;;26.70;49.30;;;;;;5033330;28;20025;-74
2022/06/14 04:39:48;;;;;;;2.63;2.42;;;26.70;49.20;;;;;;5031661;28;20029;-75
2022/06/14 04:42:28;;;;;;;2.35;2.15;;;26.70;49.10;;;;;;5032881;28;20022;-74
2022/06/14 04:45:07;;;;;;;2.50;2.28;;;26.70;49.10;;;;;;5031907;28;20379;-74
2022/06/14 04:48:05;;;;;;;3.72;2.38;;;26.70;49.10;;;;;;5036057;28;20099;-74
2022/06/14 04:50:42;;;;;;;2.63;2.40;;;26.70;49.20;;;;;;5036722;28;20049;-74
2022/06/14 04:53:19;;;;;;;3.83;2.40;;;26.70;49.00;;;;;;5036469;28;20025;-74
2022/06/14 04:55:57;;;;;;;3.35;2.20;;;26.80;49.10;;;;;;5036342;28;20097;-74
2022/06/14 04:58:25;;;;;;;3.75;2.40;;;26.80;49.00;;;;;;5036406;28;20033;-73
2022/06/14 05:01:02;;;;;;;3.33;2.55;;;26.80;49.00;;;;;;5042223;28;20376;-74
2022/06/14 05:03:38;;;;;;;3.15;2.53;;;26.80;49.00;;;;;;5054123;28;20032;-75
2022/06/14 05:06:27;;;;;;;4.45;2.20;;;26.80;48.90;;;;;;5056370;28;20471;-70
2022/06/14 05:09:02;;;;;;;2.78;2.30;;;26.90;49.00;;;;;;5055200;28;20052;-72
2022/06/14 05:11:50;;;;;;;2.40;2.20;;;26.90;48.90;;;;;;5054994;28;20071;-70
2022/06/14 05:14:19;;;;;;;2.95;2.40;;;26.90;48.80;;;;;;5053390;28;20025;-71
2022/06/14 05:16:57;;;;;;;2.67;2.17;;;26.90;48.80;;;;;;5049156;28;20029;-71
2022/06/14 05:19:38;;;;;;;3.63;2.30;;;27.00;48.80;;;;;;5045053;28;20021;-70
2022/06/14 05:22:26;;;;;;;2.33;2.13;;;27.00;48.80;;;;;;5045019;28;20401;-70
2022/06/14 05:24:51;;;;;;;2.92;2.40;;;27.10;48.80;;;;;;5043184;28;20083;-73
2022/06/14 05:27:34;;;;;;;3.65;2.40;;;27.10;48.70;;;;;;5043801;28;20491;-70
2022/06/14 05:30:06;;;;;;;3.78;2.35;;;27.10;48.70;;;;;;5043993;28;20032;-70
2022/06/14 05:32:46;;;;;;;2.60;2.40;;;27.10;48.60;;;;;;5043239;28;20018;-70
2022/06/14 05:35:35;;;;;;;2.38;2.17;;;27.10;48.60;;;;;;5043169;28;20045;-71
2022/06/14 05:38:38;;;;;;;2.40;2.20;;;27.10;48.50;;;;;;5043451;28;20037;-69
2022/06/14 05:41:14;;;;;;;2.55;2.30;;;27.10;48.50;;;;;;5043698;28;20090;-70
2022/06/14 05:43:59;;;;;;;3.95;2.33;;;27.20;48.50;;;;;;5047111;28;20452;-69
2022/06/14 05:46:36;;;;;;;2.88;2.17;;;27.20;48.50;;;;;;5048179;28;20403;-71
2022/06/14 05:49:08;;;;;;;3.25;2.33;;;27.20;48.40;;;;;;5033141;28;20045;-71
2022/06/14 05:51:43;;;;;;;2.55;2.30;;;27.20;48.30;;;;;;5034172;28;20022;-70
2022/06/14 05:54:27;;;;;;;3.90;2.22;;;27.20;48.20;;;;;;5040899;28;20035;-70
2022/06/14 05:56:55;;;;;;;;;;;27.20;48.20;;;;;;5054246;28;20451;-69
2022/06/14 05:59:40;;;;;;;3.50;2.05;;;27.20;48.00;;;;;;5053965;28;19959;-69
2022/06/14 06:02:11;;;;;;;2.35;2.15;;;27.20;48.00;;;;;;5052424;28;20100;-70
2022/06/14 06:04:52;;;;;;;2.30;2.10;;;27.30;48.00;;;;;;5045879;28;20059;-70
2022/06/14 06:07:28;;;;;;;2.33;2.13;;;27.30;47.90;;;;;;5043325;28;20033;-69
2022/06/14 06:10:03;;;;;;;2.00;1.90;;;27.30;47.90;;;;;;5042071;28;20463;-69
2022/06/14 06:12:40;;;;;;;2.72;2.10;;;27.30;47.70;;;;;;5042797;28;20040;-70
2022/06/14 06:15:31;;;;;;;2.97;1.98;;;27.30;47.60;;;;;;5044117;28;20025;-70
2022/06/14 06:18:08;;;;;;;3.63;2.10;;;27.30;47.40;;;;;;5042516;28;20022;-71
2022/06/14 06:20:49;;;;;;;2.22;2.05;;;27.30;47.50;;;;;;5024178;28;20024;-71
2022/06/14 06:23:22;;;;;;;1.92;1.80;;;27.30;47.30;;;;;;5043194;28;20029;-71
2022/06/14 06:25:54;;;;;;;3.13;2.22;;;27.40;47.30;;;;;;5043827;28;20021;-70
2022/06/14 06:28:28;;;;;;;3.10;2.00;;;27.40;47.40;;;;;;5042265;28;20048;-71
2022/06/14 06:31:04;;;;;;;4.25;2.30;;;27.40;47.30;;;;;;5042674;28;20026;-70
2022/06/14 06:33:34;;;;;;;2.35;2.10;;;27.40;47.30;;;;;;5042925;28;20029;-71
2022/06/14 06:36:27;;;;;;;3.88;2.30;;;27.50;47.30;;;;;;5049005;28;20025;-74
2022/06/14 06:39:06;;;;;;;6.43;2.00;;;27.50;47.40;;;;;;5048559;28;20032;-77
2022/06/14 06:41:50;;;;;;;2.30;1.95;;;27.50;47.40;;;;;;5053786;28;20567;-73
2022/06/14 06:44:37;;;;;;;2.60;2.03;;;27.50;47.40;;;;;;5053756;28;20056;-73
2022/06/14 06:47:11;;;;;;;2.42;2.08;;;27.60;47.50;;;;;;5053630;28;20037;-72
2022/06/14 06:50:05;;;;;;;3.17;2.30;;;27.60;47.50;;;;;;5035759;28;20028;-72
2022/06/14 06:52:55;;;;;;;2.78;2.20;;;27.60;47.50;;;;;;5053342;28;20459;-70
2022/06/14 06:55:42;;;;;;;2.10;2.00;;;27.70;47.50;;;;;;5053055;28;20029;-68
2022/06/14 06:58:24;;;;;;;2.58;1.88;;;27.80;47.40;;;;;;5044784;28;20033;-67
2022/06/14 07:00:55;;;;;;;2.75;2.00;;;27.90;47.20;;;;;;5040835;28;20037;-67
2022/06/14 07:03:44;;;;;;;3.05;2.08;;;28.10;47.20;;;;;;5032387;28;20075;-68
2022/06/14 07:06:40;;;;;;;3.00;2.10;;;28.20;47.00;;;;;;5033650;28;20029;-67
2022/06/14 07:09:43;;;;;;;2.45;2.15;;;28.30;46.50;;;;;;5052122;28;20366;-77
2022/06/14 07:12:28;;;;;;;3.70;2.38;;;28.40;46.50;;;;;;5053574;28;20066;-68
2022/06/14 07:15:00;;;;;;;2.42;2.13;;;28.40;46.50;;;;;;5052083;28;20025;-69
2022/06/14 07:17:37;;;;;;;2.60;2.40;;;28.30;46.20;;;;;;5035355;28;20131;-69
2022/06/14 07:20:03;;;;;;;5.30;2.33;;;28.30;46.10;;;;;;5032579;28;20473;-68
2022/06/14 07:22:52;;;;;;;4.38;2.25;;;28.30;46.20;;;;;;5033957;28;20048;-70
2022/06/14 07:25:36;;;;;;;2.70;2.38;;;28.30;46.20;;;;;;5032423;28;20029;-69
2022/06/14 07:28:01;;;;;;;;;;;28.20;46.10;;;;;;5032697;28;20094;-68
2022/06/14 07:30:39;;;;;;;2.50;2.30;;;28.20;46.20;;;;;;5033365;28;19921;-70
2022/06/14 07:33:06;;;;;;;2.40;2.20;;;28.20;46.40;;;;;;5033646;28;20033;-67
2022/06/14 07:35:58;;;;;;;3.60;2.20;;;28.20;46.40;;;;;;5032233;28;20459;-69
2022/06/14 07:38:40;;;;;;;2.15;2.05;;;28.20;46.40;;;;;;5033045;28;20338;-68
2022/06/14 07:41:11;;;;;;;3.28;2.20;;;28.20;46.40;;;;;;5032397;28;20120;-68
2022/06/14 07:43:53;;;;;;;4.05;2.60;;;28.30;46.50;;;;;;5033215;28;20025;-67
2022/06/14 07:46:28;;;;;;;2.95;2.40;;;28.50;46.60;;;;;;5033281;28;20021;-67
2022/06/14 07:49:01;;;;;;;2.97;2.67;;;28.60;46.50;;;;;;5033245;28;20061;-69
2022/06/14 07:51:39;;;;;;;2.90;2.65;;;28.60;46.30;;;;;;5033379;28;20036;-68
2022/06/14 07:54:21;;;;;;;2.95;2.28;;;28.60;46.30;;;;;;5032452;28;20381;-68
2022/06/14 07:57:13;;;;;;;9.05;2.85;;;28.50;46.40;;;;;;5031850;28;20025;-74
2022/06/14 07:59:51;;;;;;;3.38;2.80;;;28.40;46.50;;;;;;5032390;28;20028;-73
2022/06/14 08:02:36;;;;;;;5.53;2.78;;;28.30;46.70;;;;;;5033847;28;20029;-73
2022/06/14 08:05:21;;;;;;;4.03;2.97;;;28.20;47.50;;;;;;5031973;28;20037;-73
2022/06/14 08:07:50;;;;;;;8.32;5.20;;;28.10;47.40;;;;;;5033444;28;20102;-73
2022/06/14 08:10:23;;;;;;;3.58;3.10;;;28.00;47.50;;;;;;5032111;28;20380;-73
2022/06/14 08:12:59;;;;;;;5.18;3.30;;;27.90;47.70;;;;;;5031960;28;20475;-73
2022/06/14 08:15:34;;;;;;;7.35;4.72;;;27.80;48.20;;;;;;5033259;28;20030;-73
2022/06/14 08:18:16;;;;;;;7.32;3.83;;;27.80;48.40;;;;;;5033125;28;20025;-73
2022/06/14 08:20:56;;;;;;;5.15;4.05;;;27.60;48.70;;;;;;5034981;28;20021;-73
2022/06/14 08:23:31;;;;;;;6.93;4.40;;;27.50;48.90;;;;;;5036899;28;20032;-73
2022/06/14 08:26:20;;;;;;;7.28;4.30;;;27.30;49.40;;;;;;5036755;28;20049;-73
2022/06/14 08:28:53;;;;;;;5.43;3.97;;;27.20;49.40;;;;;;5036191;28;20053;-73
2022/06/14 08:31:32;;;;;;;6.73;4.00;;;27.10;49.70;;;;;;5036997;28;20021;-72
2022/06/14 08:34:18;;;;;;;5.05;4.18;;;27.00;50.20;;;;;;5036960;28;20529;-73
2022/06/14 08:37:03;;;;;;;10.70;4.32;;;27.00;51.30;;;;;;5036022;28;20036;-72
2022/06/14 08:39:35;;;;;;;7.53;4.72;;;26.90;50.80;;;;;;5035785;28;20078;-73
2022/06/14 08:42:30;;;;;;;6.28;4.43;;;26.90;50.60;;;;;;5036098;28;20029;-73
2022/06/14 08:44:55;;;;;;;;;;;26.80;51.00;;;;;;5035411;28;20483;-73
2022/06/14 08:47:42;;;;;;;6.28;4.47;;;26.70;50.90;;;;;;5035456;28;19952;-73
2022/06/14 08:50:34;;;;;;;6.47;4.43;;;26.70;50.80;;;;;;5036305;28;20029;-72
2022/06/14 08:53:10;;;;;;;7.68;4.45;;;26.80;51.00;;;;;;5035963;28;20468;-72
2022/06/14 08:56:01;;;;;;;6.65;4.57;;;26.70;50.80;;;;;;5036113;28;20095;-73
2022/06/14 08:59:09;;;;;;;5.35;3.90;;;26.80;51.10;;;;;;5036512;28;20029;-72
2022/06/14 09:01:52;;;;;;;5.55;4.35;;;26.70;50.70;;;;;;5036292;28;20029;-72
2022/06/14 09:04:24;;;;;;;6.93;4.93;;;26.80;51.50;;;;;;5036259;28;20053;-71
2022/06/14 09:07:15;;;;;;;8.40;4.28;;;26.80;50.90;;;;;;5035714;28;20059;-72
2022/06/14 09:10:08;;;;;;;6.43;4.53;;;26.80;51.20;;;;;;5035775;28;20083;-72
2022/06/14 09:13:05;;;;;;;8.90;4.30;;;26.70;51.70;;;;;;5036096;28;20028;-72
2022/06/14 09:15:52;;;;;;;4.97;3.92;;;26.60;51.60;;;;;;5035026;28;20117;-72
2022/06/14 09:18:26;;;;;;;7.57;4.28;;;26.40;52.00;;;;;;5034929;28;20479;-72
2022/06/14 09:21:30;;;;;;;4.70;4.20;;;26.40;52.00;;;;;;5035908;28;20032;-72
2022/06/14 09:24:20;;;;;;;5.78;4.45;;;26.30;52.60;;;;;;5035495;28;20025;-72
2022/06/14 09:27:30;;;;;;;5.47;3.90;;;26.10;52.80;;;;;;5034136;28;20380;-73
2022/06/14 09:30:23;;;;;;;4.75;3.78;;;26.00;52.70;;;;;;5034745;28;20484;-73
2022/06/14 09:33:10;;;;;;;4.65;3.60;;;26.10;52.80;;;;;;5034837;28;20025;-73
2022/06/14 09:36:10;;;;;;;4.57;3.42;;;26.20;52.90;;;;;;5035342;28;20045;-73
2022/06/14 09:38:53;;;;;;;4.97;3.72;;;26.30;53.10;;;;;;5035211;28;20105;-73
2022/06/14 09:41:39;;;;;;;4.43;3.72;;;26.40;53.10;;;;;;5035840;28;20063;-73
2022/06/14 09:44:20;;;;;;;3.78;3.42;;;26.20;52.60;;;;;;5034993;28;20033;-73
2022/06/14 09:47:21;;;;;;;4.25;3.63;;;26.10;53.00;;;;;;5035261;28;20025;-73
2022/06/14 09:49:49;;;;;;;4.28;3.22;;;26.10;53.00;;;;;;5035229;28;20030;-72
2022/06/14 09:52:41;;;;;;;4.25;3.30;;;25.90;52.80;;;;;;5035013;28;20033;-73
2022/06/14 09:55:18;;;;;;;5.75;3.00;;;25.80;53.00;;;;;;5035110;28;20527;-72
2022/06/14 09:57:46;;;;;;;4.60;3.15;;;25.70;52.80;;;;;;5034970;28;20057;-73
2022/06/14 10:00:15;;;;;;;4.40;2.95;;;25.70;52.70;;;;;;5035471;28;20065;-73
2022/06/14 10:03:25;;;;;;;3.60;2.72;;;25.60;52.80;;;;;;5033426;28;20064;-73
2022/06/14 10:06:09;;;;;;;3.10;2.80;;;25.60;53.00;;;;;;5032131;28;20025;-73
2022/06/14 10:08:53;;;;;;;4.85;3.10;;;25.50;53.10;;;;;;5034542;28;20059;-72
2022/06/14 10:12:05;;;;;;;3.45;2.65;;;25.40;53.00;;;;;;5045581;28;20083;-73
2022/06/14 10:14:52;;;;;;;3.78;2.70;;;25.40;53.30;;;;;;5052359;28;20045;-73
2022/06/14 10:17:39;;;;;;;3.55;2.65;;;25.50;53.20;;;;;;5054717;28;20434;-73
2022/06/14 10:20:29;;;;;;;2.90;2.70;;;25.40;53.20;;;;;;5053298;28;20086;-73
2022/06/14 10:23:11;;;;;;;4.75;2.70;;;25.40;53.60;;;;;;5054619;28;20024;-73
2022/06/14 10:29:02;;;;;;;3.03;2.70;;;25.20;54.30;;;;;;5054132;28;20094;-73
2022/06/14 10:31:55;;;;;;;3.60;2.70;;;25.10;54.30;;;;;;5054181;28;20072;-73
2022/06/14 10:34:28;;;;;;;3.97;2.70;;;25.00;54.70;;;;;;5054048;28;20361;-73
2022/06/14 10:37:00;;;;;;;5.35;2.90;;;25.00;55.00;;;;;;5053907;28;20037;-75
2022/06/14 10:39:49;;;;;;;3.60;2.70;;;24.90;55.20;;;;;;5053857;28;20498;-73
2022/06/14 10:42:31;;;;;;;2.92;2.63;;;24.80;55.80;;;;;;5053741;28;20124;-73
2022/06/14 10:45:05;;;;;;;4.57;2.50;;;24.80;55.60;;;;;;5052779;28;20087;-73
2022/06/14 10:47:42;;;;;;;5.45;2.42;;;24.80;55.60;;;;;;5053209;28;20067;-73
2022/06/14 10:50:44;;;;;;;4.05;2.35;;;24.90;55.60;;;;;;5053697;28;20029;-73
2022/06/14 10:53:20;;;;;;;2.60;2.30;;;25.00;56.70;;;;;;5054164;28;20082;-73
2022/06/14 10:56:28;;;;;;;4.75;2.33;;;25.00;55.30;;;;;;5054138;28;20127;-72
2022/06/14 10:59:13;;;;;;;5.60;2.10;;;25.00;55.50;;;;;;5053145;28;20545;-73
2022/06/14 11:01:38;;;;;;;;;;;24.80;55.30;;;;;;5054297;28;20032;-70
2022/06/14 11:04:35;;;;;;;2.67;2.00;;;24.70;55.40;;;;;;5053978;28;19915;-74
2022/06/14 11:07:06;;;;;;;2.15;1.92;;;24.60;55.10;;;;;;5053796;28;20456;-73
2022/06/14 11:10:06;;;;;;;1.95;1.80;;;24.60;55.10;;;;;;5053954;28;20036;-74
2022/06/14 11:12:47;;;;;;;3.05;2.10;;;24.60;55.00;;;;;;5053937;28;20425;-72
2022/06/14 11:15:17;;;;;;;2.00;1.90;;;24.60;54.60;;;;;;5052887;28;20025;-73
2022/06/14 11:17:51;;;;;;;3.53;1.90;;;24.40;54.60;;;;;;5053095;28;20380;-73
2022/06/14 11:20:29;;;;;;;1.80;1.70;;;24.30;54.80;;;;;;5052788;28;20361;-73
2022/06/14 11:23:06;;;;;;;1.75;1.65;;;24.20;55.00;;;;;;5052253;28;20103;-73
2022/06/14 11:25:41;;;;;;;2.03;1.75;;;24.10;54.80;;;;;;5053582;28;20040;-74
2022/06/14 11:28:22;;;;;;;1.70;1.60;;;24.10;55.00;;;;;;5052481;28;20040;-73
2022/06/14 11:30:52;;;;;;;1.55;1.45;;;24.10;55.10;;;;;;5052288;28;20029;-73
2022/06/14 11:33:45;;;;;;;1.70;1.60;;;24.20;54.90;;;;;;5053646;28;20414;-73
2022/06/14 11:36:35;;;;;;;1.92;1.80;;;24.20;54.60;;;;;;5052605;28;20057;-73
2022/06/14 11:39:09;;;;;;;1.88;1.67;;;24.30;54.20;;;;;;5053786;28;20055;-73
2022/06/14 11:41:43;;;;;;;2.03;1.88;;;24.40;54.00;;;;;;5053325;28;20470;-73
2022/06/14 11:44:24;;;;;;;1.67;1.58;;;24.40;54.00;;;;;;5052856;28;20033;-73
2022/06/14 11:46:58;;;;;;;1.65;1.55;;;24.50;53.80;;;;;;5053336;28;20043;-73
2022/06/14 11:49:39;;;;;;;2.38;1.83;;;24.70;53.70;;;;;;5053325;28;20029;-73
2022/06/14 11:52:11;;;;;;;2.72;1.70;;;24.70;53.40;;;;;;5053457;28;20049;-73
2022/06/14 11:55:03;;;;;;;1.90;1.80;;;24.80;53.20;;;;;;5053552;28;20024;-72
2022/06/14 11:57:52;;;;;;;1.92;1.83;;;24.90;52.20;;;;;;5057429;28;20029;-73
2022/06/14 12:00:24;;;;;;;1.70;1.60;;;24.90;51.70;;;;;;5055989;28;20056;-73
2022/06/14 12:03:06;;;;;;;2.88;1.63;;;24.80;51.80;;;;;;5057636;28;20017;-73
2022/06/14 12:05:54;;;;;;;1.83;1.73;;;24.80;51.80;;;;;;5056163;28;20029;-73
2022/06/14 12:08:45;;;;;;;1.63;1.52;;;24.90;51.80;;;;;;5056061;28;20132;-73
2022/06/14 12:11:23;;;;;;;1.80;1.70;;;25.00;51.50;;;;;;5057486;28;20033;-73
2022/06/14 12:14:09;;;;;;;1.73;1.60;;;25.10;51.30;;;;;;5057615;28;20063;-73
2022/06/14 12:16:40;;;;;;;1.98;1.88;;;25.20;50.70;;;;;;5057201;28;20463;-73
2022/06/14 12:19:08;;;;;;;2.10;1.70;;;25.30;50.90;;;;;;5057088;28;20092;-73
2022/06/14 12:21:58;;;;;;;1.65;1.55;;;25.40;50.60;;;;;;5057053;28;20458;-72
2022/06/14 12:26:34;;;;;;;2.22;1.85;;;25.60;50.30;;;;;;5056991;28;20367;-72
2022/06/14 12:27:18;;;;;;;1.60;1.50;;;25.60;50.20;;;;;;5056267;28;20476;-73
2022/06/14 12:29:48;;;;;;;3.08;1.80;;;25.60;50.10;;;;;;5056599;28;20074;-72
2022/06/14 12:32:32;;;;;;;1.67;1.58;;;25.70;50.20;;;;;;5056941;28;20032;-73
2022/06/14 12:35:00;;;;;;;1.80;1.70;;;25.80;50.10;;;;;;5056897;28;20031;-72
2022/06/14 12:38:01;;;;;;;4.40;1.75;;;25.90;49.70;;;;;;5056652;28;20025;-73
2022/06/14 12:40:39;;;;;;;1.90;1.75;;;26.00;49.30;;;;;;5056968;28;20060;-73
2022/06/14 12:43:36;;;;;;;2.35;1.67;;;26.20;49.10;;;;;;5056714;28;20033;-72
2022/06/14 12:46:08;;;;;;;1.70;1.60;;;26.30;49.00;;;;;;5056635;28;20036;-72
2022/06/14 12:48:45;;;;;;;1.50;1.40;;;26.40;49.10;;;;;;5056347;28;20037;-72
2022/06/14 12:51:13;;;;;;;1.95;1.67;;;26.50;48.80;;;;;;5056347;28;20084;-73
2022/06/14 12:53:39;;;;;;;2.05;1.38;;;26.60;48.70;;;;;;5055210;28;20032;-73
2022/06/14 12:56:28;;;;;;;1.60;1.50;;;26.70;48.50;;;;;;5056388;28;20074;-73
2022/06/14 12:59:23;;;;;;;1.70;1.60;;;26.70;48.10;;;;;;5056175;28;20038;-75
2022/06/14 13:01:55;;;;;;;1.48;1.30;;;26.90;48.10;;;;;;5056636;28;20029;-72
2022/06/14 13:04:46;;;;;;;1.50;1.40;;;27.00;48.20;;;;;;5056393;28;20021;-72
2022/06/14 13:07:50;;;;;;;1.77;1.13;;;27.20;48.00;;;;;;5054932;28;20033;-73
2022/06/14 13:10:37;;;;;;;2.80;1.23;;;27.40;47.80;;;;;;5054361;28;20060;-73
2022/06/14 13:13:33;;;;;;;1.58;1.20;;;27.70;47.60;;;;;;5056042;28;20137;-72
2022/06/14 13:16:13;;;;;;;1.40;1.30;;;27.90;47.30;;;;;;5056283;28;20029;-73
2022/06/14 13:18:59;;;;;;;1.30;1.20;;;28.00;46.50;;;;;;5055903;28;20487;-73
2022/06/14 13:22:02;;;;;;;1.25;1.08;;;28.00;45.90;;;;;;5055822;28;20452;-73
2022/06/14 13:25:07;;;;;;;1.00;1.00;;;28.00;45.80;;;;;;5054961;28;20113;-73
2022/06/14 13:27:39;;;;;;;1.25;1.15;;;28.00;44.80;;;;;;5055658;28;20049;-73
2022/06/14 13:30:05;;;;;;;1.30;1.10;;;28.00;45.40;;;;;;5055860;28;20033;-72
2022/06/14 13:32:46;;;;;;;1.20;1.10;;;28.00;44.90;;;;;;5055775;28;20028;-73
2022/06/14 13:35:30;;;;;;;1.08;0.90;;;27.90;44.90;;;;;;5055915;28;20104;-72
2022/06/14 13:38:01;;;;;;;;;;;28.20;45.20;;;;;;5055895;28;20029;-72
2022/06/14 13:40:42;;;;;;;1.38;1.17;;;28.70;43.90;;;;;;5055278;28;20422;-72
2022/06/14 13:43:37;;;;;;;2.17;1.00;;;29.40;43.70;;;;;;5055562;28;20378;-73
2022/06/14 13:46:15;;;;;;;1.25;1.15;;;30.00;42.90;;;;;;5051466;28;20029;-74
2022/06/14 13:48:51;;;;;;;1.13;1.00;;;30.60;43.40;;;;;;5055030;28;20032;-74
2022/06/14 13:51:44;;;;;;;1.40;1.02;;;31.20;43.30;;;;;;5054496;28;20021;-73
2022/06/14 13:54:31;;;;;;;1.10;1.00;;;31.90;41.60;;;;;;5055555;28;20020;-73
2022/06/14 13:57:23;;;;;;;1.10;1.00;;;32.40;40.20;;;;;;5054213;28;20025;-73
2022/06/14 13:59:51;;;;;;;1.35;1.00;;;32.80;41.10;;;;;;5054153;28;20032;-73
2022/06/14 14:02:55;;;;;;;0.98;0.80;;;33.40;41.70;;;;;;5055432;28;20025;-73